Time;durP1;ratioP1;P1;durP2;ratioP2;P2;SDS_P1;SDS_P2;PMS_P1;PMS_P2;Temp;Humidity;BMP_temperature;BMP_pressure;BME280_temperature;BME280_humidity;BME280_pressure;Samples;Min_cycle;Max_cycle;Signal;HPM_P1;HPM_P2
2023/05/17 00:00:28;;;;;;;2.37;2.17;;;;;;;;;;5049633;28;20197;-81
2023/05/17 00:02:55;;;;;;;3.97;2.10;;;;;;;;;;5049977;28;20209;-80
2023/05/17 00:05:22;;;;;;;3.30;2.30;;;;;;;;;;5049774;28;20205;-80
2023/05/17 00:07:48;;;;;;;6.70;3.03;;;;;;;;;;5050409;28;20202;-80
2023/05/17 00:10:15;;;;;;;4.97;2.50;;;;;;;;;;5045420;28;20686;-80
2023/05/17 00:12:42;;;;;;;5.40;2.40;;;;;;;;;;5040648;28;20226;-81
2023/05/17 00:15:11;;;;;;;4.03;2.70;;;;;;;;;;5045564;28;20256;-81
2023/05/17 00:17:37;;;;;;;3.30;2.87;;;;;;;;;;5041744;28;20206;-82
2023/05/17 00:20:05;;;;;;;2.90;2.60;;;;;;;;;;5049825;28;20344;-80
2023/05/17 00:22:32;;;;;;;2.20;1.90;;;;;;;;;;5050226;28;20213;-80
2023/05/17 00:24:59;;;;;;;2.57;2.33;;;;;;;;;;5049645;28;20228;-80
2023/05/17 00:27:26;;;;;;;2.10;1.73;;;;;;;;;;5050028;28;20213;-80
2023/05/17 00:29:52;;;;;;;4.03;1.90;;;;;;;;;;5049731;28;20274;-80
2023/05/17 00:32:20;;;;;;;8.33;1.90;;;;;;;;;;5048740;28;20228;-81
2023/05/17 00:34:47;;;;;;;2.30;2.10;;;;;;;;;;5036038;28;20259;-81
2023/05/17 00:37:14;;;;;;;3.67;2.20;;;;;;;;;;5049353;28;20697;-81
2023/05/17 00:39:41;;;;;;;2.73;2.53;;;;;;;;;;5049558;28;20209;-81
2023/05/17 00:42:07;;;;;;;2.87;2.17;;;;;;;;;;5049900;28;20214;-80
2023/05/17 00:44:34;;;;;;;3.60;2.60;;;;;;;;;;5036523;28;20209;-80
2023/05/17 00:47:01;;;;;;;5.33;2.90;;;;;;;;;;5049664;28;20254;-81
2023/05/17 00:49:30;;;;;;;3.23;2.67;;;;;;;;;;5049280;28;20201;-81
2023/05/17 00:51:56;;;;;;;8.27;2.87;;;;;;;;;;5048765;28;20798;-81
2023/05/17 00:54:23;;;;;;;3.00;2.43;;;;;;;;;;5049121;28;20676;-81
2023/05/17 00:56:50;;;;;;;4.40;3.03;;;;;;;;;;5048764;28;20644;-82
2023/05/17 00:59:17;;;;;;;2.77;2.50;;;;;;;;;;5049186;28;20206;-80
2023/05/17 01:01:44;;;;;;;6.03;3.27;;;;;;;;;;5049083;28;20219;-81
2023/05/17 01:04:11;;;;;;;2.70;2.50;;;;;;;;;;5049372;28;20198;-81
2023/05/17 01:06:42;;;;;;;3.97;2.77;;;;;;;;;;5035244;28;20213;-80
2023/05/17 01:09:10;;;;;;;3.80;2.87;;;;;;;;;;5037634;28;20198;-81
2023/05/17 01:11:42;;;;;;;3.93;3.00;;;;;;;;;;5048812;28;20241;-80
2023/05/17 01:14:22;;;;;;;3.40;3.07;;;;;;;;;;5048865;28;20209;-82
2023/05/17 01:16:54;;;;;;;5.73;3.20;;;;;;;;;;5048921;28;20205;-80
2023/05/17 01:19:50;;;;;;;3.00;2.70;;;;;;;;;;5048758;28;20684;-80
2023/05/17 01:22:32;;;;;;;3.73;3.43;;;;;;;;;;5048395;28;20198;-80
2023/05/17 01:25:08;;;;;;;5.07;2.93;;;;;;;;;;5030134;28;20207;-80
2023/05/17 01:27:36;;;;;;;3.37;2.97;;;;;;;;;;5048440;28;20263;-80
2023/05/17 01:30:04;;;;;;;4.83;4.30;;;;;;;;;;5049554;28;20206;-80
2023/05/17 01:32:32;;;;;;;4.63;3.33;;;;;;;;;;5039856;28;20299;-80
2023/05/17 01:34:59;;;;;;;3.70;3.40;;;;;;;;;;5042473;28;20213;-80
2023/05/17 01:37:25;;;;;;;7.07;3.80;;;;;;;;;;5048778;28;20656;-80
2023/05/17 01:39:52;;;;;;;3.60;3.30;;;;;;;;;;5048312;27;20589;-80
2023/05/17 01:42:23;;;;;;;3.70;3.40;;;;;;;;;;5048535;28;20202;-80
2023/05/17 01:45:00;;;;;;;3.83;2.90;;;;;;;;;;5039821;28;20210;-80
2023/05/17 01:47:32;;;;;;;3.77;3.33;;;;;;;;;;5048654;28;20660;-80
2023/05/17 01:49:59;;;;;;;6.43;4.17;;;;;;;;;;5031659;28;20632;-77
2023/05/17 01:52:30;;;;;;;4.50;3.43;;;;;;;;;;5047549;28;20227;-77
2023/05/17 01:55:05;;;;;;;3.70;3.20;;;;;;;;;;5048053;28;20668;-80
2023/05/17 01:57:35;;;;;;;6.20;3.67;;;;;;;;;;5048068;28;20692;-80
2023/05/17 02:00:07;;;;;;;3.63;3.17;;;;;;;;;;5048382;28;20285;-80
2023/05/17 02:02:34;;;;;;;3.23;2.97;;;;;;;;;;5047717;28;20202;-80
2023/05/17 02:05:00;;;;;;;8.00;3.43;;;;;;;;;;5039640;28;20202;-80
2023/05/17 02:07:27;;;;;;;5.00;3.23;;;;;;;;;;5043099;28;20207;-79
2023/05/17 02:09:54;;;;;;;5.07;3.63;;;;;;;;;;5048013;28;20210;-80
2023/05/17 02:12:20;;;;;;;5.13;3.30;;;;;;;;;;5047685;28;20222;-80
2023/05/17 02:14:47;;;;;;;7.73;2.83;;;;;;;;;;5047751;28;20705;-80
2023/05/17 02:17:16;;;;;;;5.40;2.90;;;;;;;;;;5047864;28;20205;-80
2023/05/17 02:19:43;;;;;;;7.23;2.80;;;;;;;;;;5048350;28;20224;-80
2023/05/17 02:22:09;;;;;;;6.63;3.40;;;;;;;;;;5047879;28;20206;-79
2023/05/17 02:24:36;;;;;;;8.20;5.53;;;;;;;;;;5047407;28;20202;-80
2023/05/17 02:27:03;;;;;;;11.03;8.17;;;;;;;;;;5047392;28;20258;-80
2023/05/17 02:29:30;;;;;;;6.43;4.30;;;;;;;;;;5047517;28;20203;-80
2023/05/17 02:31:57;;;;;;;3.70;2.87;;;;;;;;;;5047535;28;20258;-80
2023/05/17 02:34:25;;;;;;;3.17;2.60;;;;;;;;;;5025650;28;20196;-80
2023/05/17 02:36:52;;;;;;;6.90;2.97;;;;;;;;;;5039489;28;20699;-80
2023/05/17 02:39:19;;;;;;;6.13;2.73;;;;;;;;;;5047897;28;20203;-80
2023/05/17 02:41:45;;;;;;;3.40;2.20;;;;;;;;;;5035106;28;20210;-80
2023/05/17 02:44:12;;;;;;;4.17;2.87;;;;;;;;;;5047256;28;20206;-80
2023/05/17 02:46:39;;;;;;;2.30;2.10;;;;;;;;;;5047831;28;20222;-80
2023/05/17 02:49:06;;;;;;;4.03;2.57;;;;;;;;;;5047772;28;20201;-80
2023/05/17 02:51:37;;;;;;;2.83;2.53;;;;;;;;;;5027080;28;20211;-80
2023/05/17 02:54:04;;;;;;;3.93;2.50;;;;;;;;;;5039380;28;20263;-80
2023/05/17 02:56:31;;;;;;;3.03;2.73;;;;;;;;;;5039083;28;20237;-80
2023/05/17 02:59:00;;;;;;;2.80;2.60;;;;;;;;;;5041853;28;20239;-80
2023/05/17 03:01:26;;;;;;;6.10;2.60;;;;;;;;;;5025887;28;20213;-78
2023/05/17 03:03:53;;;;;;;5.47;2.60;;;;;;;;;;5035049;28;20636;-79
2023/05/17 03:06:20;;;;;;;5.60;2.33;;;;;;;;;;5046179;28;20206;-80
2023/05/17 03:08:48;;;;;;;3.40;2.70;;;;;;;;;;5046894;28;20206;-80
2023/05/17 03:11:15;;;;;;;4.47;2.57;;;;;;;;;;5045428;28;20201;-80
2023/05/17 03:13:42;;;;;;;2.83;2.30;;;;;;;;;;5046832;28;20233;-80
2023/05/17 03:16:08;;;;;;;2.60;2.17;;;;;;;;;;5046289;28;20590;-80
2023/05/17 03:18:35;;;;;;;2.50;2.30;;;;;;;;;;5046388;28;20206;-80
2023/05/17 03:21:02;;;;;;;4.93;2.33;;;;;;;;;;5045867;28;20198;-80
2023/05/17 03:23:28;;;;;;;2.03;1.93;;;;;;;;;;5047563;28;20220;-80
2023/05/17 03:25:57;;;;;;;4.30;1.90;;;;;;;;;;5046490;28;20206;-80
2023/05/17 03:28:23;;;;;;;2.13;2.03;;;;;;;;;;5047564;28;20202;-80
2023/05/17 03:30:50;;;;;;;4.30;1.90;;;;;;;;;;5033549;28;20206;-80
2023/05/17 03:33:18;;;;;;;4.50;2.20;;;;;;;;;;5046776;28;20765;-80
2023/05/17 03:35:45;;;;;;;2.43;2.00;;;;;;;;;;5046919;28;20212;-81
2023/05/17 03:38:13;;;;;;;2.10;1.60;;;;;;;;;;5047418;28;20233;-80
2023/05/17 03:40:40;;;;;;;2.30;2.03;;;;;;;;;;5046207;28;20202;-80
2023/05/17 03:43:08;;;;;;;5.23;2.00;;;;;;;;;;5047345;28;20637;-80
2023/05/17 03:45:35;;;;;;;1.70;1.60;;;;;;;;;;5044784;28;20601;-81
2023/05/17 03:48:02;;;;;;;4.27;2.70;;;;;;;;;;5033478;28;20209;-80
2023/05/17 03:50:30;;;;;;;3.90;2.93;;;;;;;;;;5046590;28;20246;-80
2023/05/17 03:52:57;;;;;;;4.60;3.43;;;;;;;;;;5046992;28;20232;-80
2023/05/17 03:55:24;;;;;;;4.40;3.30;;;;;;;;;;5033181;28;20218;-79
2023/05/17 03:57:51;;;;;;;7.17;3.97;;;;;;;;;;5046619;28;20202;-80
2023/05/17 04:00:22;;;;;;;4.20;3.47;;;;;;;;;;5035253;28;20252;-80
2023/05/17 04:02:50;;;;;;;6.50;5.10;;;;;;;;;;5044092;28;20237;-80
2023/05/17 04:05:17;;;;;;;5.27;3.70;;;;;;;;;;5046015;28;20680;-81
2023/05/17 04:07:44;;;;;;;2.60;2.40;;;;;;;;;;5047215;28;20201;-81
2023/05/17 04:10:11;;;;;;;2.20;2.00;;;;;;;;;;5048440;28;20202;-81
2023/05/17 04:12:38;;;;;;;3.03;2.50;;;;;;;;;;5036102;28;20229;-80
2023/05/17 04:15:07;;;;;;;4.00;2.03;;;;;;;;;;5049771;28;20221;-80
2023/05/17 04:17:35;;;;;;;4.63;2.30;;;;;;;;;;5042059;28;20271;-80
2023/05/17 04:20:03;;;;;;;2.93;2.53;;;;;;;;;;5045358;28;20205;-81
2023/05/17 04:22:30;;;;;;;2.77;2.57;;;;;;;;;;5049809;28;20206;-80
2023/05/17 04:24:57;;;;;;;2.97;2.77;;;;;;;;;;5050092;28;20221;-80
2023/05/17 04:27:27;;;;;;;7.77;3.53;;;;;;;;;;5049541;28;20202;-80
2023/05/17 04:29:53;;;;;;;3.03;2.73;;;;;;;;;;5046700;28;20209;-80
2023/05/17 04:32:20;;;;;;;4.23;3.23;;;;;;;;;;5040466;28;20592;-81
2023/05/17 04:34:48;;;;;;;5.23;3.73;;;;;;;;;;5049209;28;20205;-80
2023/05/17 04:37:15;;;;;;;6.43;3.50;;;;;;;;;;5049492;28;20204;-80
2023/05/17 04:39:42;;;;;;;3.37;3.07;;;;;;;;;;5049335;28;20194;-80
2023/05/17 04:42:09;;;;;;;5.10;3.20;;;;;;;;;;5048390;28;20198;-81
2023/05/17 04:44:36;;;;;;;7.33;3.17;;;;;;;;;;5047418;28;20644;-81
2023/05/17 04:47:02;;;;;;;3.10;2.90;;;;;;;;;;5048493;28;20282;-80
2023/05/17 04:49:29;;;;;;;3.40;3.10;;;;;;;;;;5022609;28;20209;-80
2023/05/17 04:51:57;;;;;;;3.80;2.63;;;;;;;;;;5048617;28;20210;-80
2023/05/17 04:54:24;;;;;;;5.20;2.60;;;;;;;;;;5048251;28;20652;-80
2023/05/17 04:56:51;;;;;;;3.10;2.80;;;;;;;;;;5048322;28;20300;-81
2023/05/17 04:59:19;;;;;;;9.13;7.13;;;;;;;;;;5048956;28;20205;-81
2023/05/17 05:01:46;;;;;;;8.13;5.37;;;;;;;;;;5049368;28;20221;-81
2023/05/17 05:04:13;;;;;;;10.00;7.53;;;;;;;;;;5049640;28;20194;-80
2023/05/17 05:06:39;;;;;;;4.67;2.87;;;;;;;;;;5048375;28;20262;-81
2023/05/17 05:09:08;;;;;;;8.90;6.67;;;;;;;;;;5049302;28;20653;-81
2023/05/17 05:11:35;;;;;;;11.60;9.83;;;;;;;;;;5048339;28;20202;-80
2023/05/17 05:14:01;;;;;;;8.20;5.77;;;;;;;;;;5049035;28;20672;-81
2023/05/17 05:16:28;;;;;;;5.50;4.17;;;;;;;;;;5048618;28;20266;-81
2023/05/17 05:18:55;;;;;;;5.50;4.70;;;;;;;;;;5048294;28;20667;-81
2023/05/17 05:21:22;;;;;;;6.73;4.77;;;;;;;;;;5048498;28;20216;-81
2023/05/17 05:23:48;;;;;;;6.93;4.23;;;;;;;;;;5049350;28;20209;-81
2023/05/17 05:26:17;;;;;;;7.27;4.33;;;;;;;;;;5048920;28;20255;-81
2023/05/17 05:28:44;;;;;;;5.27;3.17;;;;;;;;;;5048800;28;20201;-80
2023/05/17 05:31:11;;;;;;;3.93;3.10;;;;;;;;;;5048936;28;20582;-81
2023/05/17 05:33:37;;;;;;;7.13;3.60;;;;;;;;;;5048602;28;20240;-81
2023/05/17 05:36:05;;;;;;;4.57;3.37;;;;;;;;;;5045223;28;20210;-81
2023/05/17 05:38:32;;;;;;;4.30;3.50;;;;;;;;;;5039756;28;20265;-80
2023/05/17 05:40:58;;;;;;;4.93;3.10;;;;;;;;;;5048447;28;20254;-81
2023/05/17 05:43:26;;;;;;;7.00;3.50;;;;;;;;;;5048840;28;20210;-81
2023/05/17 05:45:53;;;;;;;6.47;3.60;;;;;;;;;;5047650;28;20237;-80
2023/05/17 05:48:20;;;;;;;3.30;3.00;;;;;;;;;;5048796;28;20205;-81
2023/05/17 05:50:47;;;;;;;24.97;12.90;;;;;;;;;;5047549;28;20231;-82
2023/05/17 05:53:14;;;;;;;5.57;4.27;;;;;;;;;;5048824;28;20221;-81
2023/05/17 05:55:41;;;;;;;8.47;4.67;;;;;;;;;;5047270;28;20207;-81
2023/05/17 05:58:08;;;;;;;7.50;5.53;;;;;;;;;;5048398;28;20229;-81
2023/05/17 06:00:36;;;;;;;5.00;3.10;;;;;;;;;;5048525;28;20206;-81
2023/05/17 06:03:03;;;;;;;6.47;3.00;;;;;;;;;;5048394;28;20636;-81
2023/05/17 06:05:30;;;;;;;3.17;2.83;;;;;;;;;;5047210;28;20634;-81
2023/05/17 06:07:58;;;;;;;4.10;3.77;;;;;;;;;;5048414;28;20202;-80
2023/05/17 06:10:24;;;;;;;4.23;3.80;;;;;;;;;;5046899;28;20634;-81
2023/05/17 06:12:51;;;;;;;25.47;19.23;;;;;;;;;;5047827;28;20202;-81
2023/05/17 06:15:18;;;;;;;7.63;6.87;;;;;;;;;;5048022;28;20194;-81
2023/05/17 06:17:46;;;;;;;4.80;4.13;;;;;;;;;;5047456;28;20202;-81
2023/05/17 06:20:13;;;;;;;3.83;3.53;;;;;;;;;;5048200;28;20209;-81
2023/05/17 06:22:40;;;;;;;4.20;3.90;;;;;;;;;;5047459;28;20209;-81
2023/05/17 06:25:09;;;;;;;4.77;3.10;;;;;;;;;;5042554;28;20210;-81
2023/05/17 06:27:36;;;;;;;6.07;4.27;;;;;;;;;;5040436;28;20205;-81
2023/05/17 06:30:04;;;;;;;5.97;4.20;;;;;;;;;;5034034;28;20202;-81
2023/05/17 06:32:30;;;;;;;4.47;3.77;;;;;;;;;;5048137;28;20205;-81
2023/05/17 06:34:58;;;;;;;4.50;3.57;;;;;;;;;;5047973;28;20225;-81
2023/05/17 06:37:25;;;;;;;9.23;5.57;;;;;;;;;;5048043;27;20613;-82
2023/05/17 06:39:52;;;;;;;11.93;5.50;;;;;;;;;;5021629;28;20213;-81
2023/05/17 06:42:19;;;;;;;6.70;4.43;;;;;;;;;;5047633;28;20215;-82
2023/05/17 06:44:45;;;;;;;7.60;3.90;;;;;;;;;;5048289;28;20641;-81
2023/05/17 06:47:12;;;;;;;7.37;4.03;;;;;;;;;;5047256;28;20739;-81
2023/05/17 06:49:39;;;;;;;3.90;3.43;;;;;;;;;;5047422;28;20688;-81
2023/05/17 06:52:07;;;;;;;5.10;4.60;;;;;;;;;;5047025;28;20345;-81
2023/05/17 06:54:34;;;;;;;5.47;4.87;;;;;;;;;;5047746;28;20226;-81
2023/05/17 06:57:01;;;;;;;10.47;5.50;;;;;;;;;;5047691;28;20202;-81
2023/05/17 06:59:27;;;;;;;7.50;4.10;;;;;;;;;;5046979;28;20202;-81
2023/05/17 07:01:54;;;;;;;4.43;4.03;;;;;;;;;;5047317;28;20262;-81
2023/05/17 07:04:21;;;;;;;7.20;3.67;;;;;;;;;;5047258;28;20649;-81
2023/05/17 07:06:48;;;;;;;11.27;7.00;;;;;;;;;;5047229;28;20214;-81
2023/05/17 07:09:16;;;;;;;3.67;3.37;;;;;;;;;;5047147;28;20699;-81
2023/05/17 07:11:43;;;;;;;7.07;3.90;;;;;;;;;;5046691;28;20206;-81
2023/05/17 07:14:10;;;;;;;6.40;4.00;;;;;;;;;;5047326;28;20271;-81
2023/05/17 07:16:37;;;;;;;10.33;6.47;;;;;;;;;;5046506;28;20218;-81
2023/05/17 07:19:04;;;;;;;3.40;3.10;;;;;;;;;;5047398;28;20206;-81
2023/05/17 07:21:31;;;;;;;5.20;3.13;;;;;;;;;;5046284;28;20248;-81
2023/05/17 07:24:04;;;;;;;3.33;2.80;;;;;;;;;;5037984;28;20685;-81
2023/05/17 07:26:32;;;;;;;5.67;3.73;;;;;;;;;;5044420;28;20202;-81
2023/05/17 07:28:58;;;;;;;7.77;4.87;;;;;;;;;;5047438;28;20205;-81
2023/05/17 07:31:25;;;;;;;5.63;3.93;;;;;;;;;;5047018;28;20198;-81
2023/05/17 07:33:52;;;;;;;5.83;3.37;;;;;;;;;;5046806;28;20228;-82
2023/05/17 07:36:19;;;;;;;6.13;3.10;;;;;;;;;;5047020;28;20198;-81
2023/05/17 07:38:45;;;;;;;3.40;3.03;;;;;;;;;;5047446;28;20198;-81
2023/05/17 07:41:15;;;;;;;7.30;3.47;;;;;;;;;;5033171;28;20198;-81
2023/05/17 07:43:43;;;;;;;7.20;3.47;;;;;;;;;;5050368;28;20206;-81
2023/05/17 07:46:10;;;;;;;7.00;5.47;;;;;;;;;;5050231;28;20712;-81
2023/05/17 07:48:37;;;;;;;10.43;5.60;;;;;;;;;;5050326;28;20209;-81
2023/05/17 07:51:04;;;;;;;21.80;12.77;;;;;;;;;;5043517;28;20256;-81
2023/05/17 07:53:30;;;;;;;13.23;8.13;;;;;;;;;;5043151;28;20704;-81
2023/05/17 07:55:57;;;;;;;10.30;6.73;;;;;;;;;;5044287;28;20210;-82
2023/05/17 07:58:24;;;;;;;17.23;11.13;;;;;;;;;;5043451;28;20686;-82
2023/05/17 08:00:52;;;;;;;20.07;14.53;;;;;;;;;;5050393;28;20642;-81
2023/05/17 08:03:19;;;;;;;29.17;18.83;;;;;;;;;;5050207;28;20222;-82
2023/05/17 08:05:46;;;;;;;24.40;16.40;;;;;;;;;;5049741;28;20209;-82
2023/05/17 08:08:13;;;;;;;13.60;9.90;;;;;;;;;;5049806;28;20223;-82
2023/05/17 08:10:41;;;;;;;9.13;8.07;;;;;;;;;;5049964;28;20208;-81
2023/05/17 08:13:10;;;;;;;12.33;8.03;;;;;;;;;;5048887;28;20226;-82
2023/05/17 08:15:37;;;;;;;8.57;7.70;;;;;;;;;;5038183;28;20710;-81
2023/05/17 08:18:05;;;;;;;6.97;3.80;;;;;;;;;;5049166;28;20204;-81
2023/05/17 08:20:32;;;;;;;4.57;3.70;;;;;;;;;;5049857;28;20675;-82
2023/05/17 08:22:59;;;;;;;9.20;4.63;;;;;;;;;;5049408;28;20204;-82
2023/05/17 08:25:25;;;;;;;6.97;3.90;;;;;;;;;;5040920;28;20651;-81
2023/05/17 08:27:52;;;;;;;10.97;4.33;;;;;;;;;;5031872;28;20680;-82
2023/05/17 08:30:19;;;;;;;6.13;3.93;;;;;;;;;;5049787;28;20215;-82
2023/05/17 08:32:46;;;;;;;9.13;5.20;;;;;;;;;;5049598;28;20201;-81
2023/05/17 08:35:14;;;;;;;4.17;3.47;;;;;;;;;;5049972;28;20236;-82
2023/05/17 08:37:41;;;;;;;9.50;3.87;;;;;;;;;;5049546;28;20695;-82
2023/05/17 08:40:09;;;;;;;14.07;8.47;;;;;;;;;;5049825;28;20586;-82
2023/05/17 08:42:36;;;;;;;4.77;4.10;;;;;;;;;;5049279;28;20261;-82
2023/05/17 08:45:07;;;;;;;7.80;4.33;;;;;;;;;;5049772;28;20205;-81
2023/05/17 08:47:36;;;;;;;7.47;4.60;;;;;;;;;;5049665;28;20286;-81
2023/05/17 08:50:04;;;;;;;7.60;4.63;;;;;;;;;;5049622;28;20204;-82
2023/05/17 08:52:33;;;;;;;9.90;4.80;;;;;;;;;;5048824;28;20208;-82
2023/05/17 08:55:01;;;;;;;5.10;4.27;;;;;;;;;;5048597;28;20231;-82
2023/05/17 08:57:28;;;;;;;5.37;4.10;;;;;;;;;;5049363;28;20209;-81
2023/05/17 08:59:55;;;;;;;25.10;15.37;;;;;;;;;;5049543;28;20256;-82
2023/05/17 09:02:23;;;;;;;25.73;14.63;;;;;;;;;;5048240;28;20248;-81
2023/05/17 09:04:54;;;;;;;42.73;23.87;;;;;;;;;;5049106;28;20202;-81
2023/05/17 09:07:21;;;;;;;49.40;26.43;;;;;;;;;;5049019;28;20209;-81
2023/05/17 09:09:51;;;;;;;70.80;36.40;;;;;;;;;;5049247;28;20218;-81
2023/05/17 09:12:21;;;;;;;40.33;21.23;;;;;;;;;;5023385;28;20585;-81
2023/05/17 09:14:48;;;;;;;63.87;35.80;;;;;;;;;;5049348;28;20237;-81
2023/05/17 09:17:18;;;;;;;61.23;29.90;;;;;;;;;;5049109;28;20208;-81
2023/05/17 09:19:46;;;;;;;24.07;15.73;;;;;;;;;;5048884;28;20686;-81
2023/05/17 09:22:14;;;;;;;21.43;11.13;;;;;;;;;;5048550;28;20207;-81
2023/05/17 09:24:43;;;;;;;23.73;14.10;;;;;;;;;;5046070;28;20681;-81
2023/05/17 09:27:17;;;;;;;16.30;10.50;;;;;;;;;;5038932;28;20202;-81
2023/05/17 09:29:45;;;;;;;16.93;12.13;;;;;;;;;;5049172;28;20198;-81
2023/05/17 09:32:16;;;;;;;18.77;12.10;;;;;;;;;;5048984;28;20263;-81
2023/05/17 09:34:45;;;;;;;13.27;9.53;;;;;;;;;;5048163;28;20226;-81
2023/05/17 09:37:16;;;;;;;15.47;11.27;;;;;;;;;;5048858;28;20286;-81
2023/05/17 09:39:44;;;;;;;17.87;11.87;;;;;;;;;;5022859;28;20262;-81
2023/05/17 09:42:11;;;;;;;9.27;7.80;;;;;;;;;;5048842;28;20364;-81
2023/05/17 09:44:51;;;;;;;9.37;7.90;;;;;;;;;;5048681;28;20274;-80
2023/05/17 09:47:26;;;;;;;12.77;9.20;;;;;;;;;;5048617;28;20248;-81
2023/05/17 09:49:53;;;;;;;11.37;9.37;;;;;;;;;;5049223;28;20208;-81
2023/05/17 09:52:20;;;;;;;9.17;8.03;;;;;;;;;;5047156;28;20202;-81
2023/05/17 09:54:54;;;;;;;7.17;6.27;;;;;;;;;;5048857;28;20236;-81
2023/05/17 09:57:21;;;;;;;8.23;7.30;;;;;;;;;;5047961;28;20262;-81
2023/05/17 09:59:50;;;;;;;9.33;7.90;;;;;;;;;;5048012;28;20205;-81
2023/05/17 10:02:27;;;;;;;10.50;8.17;;;;;;;;;;5047743;28;20202;-81
2023/05/17 10:04:56;;;;;;;10.17;7.87;;;;;;;;;;5047617;28;20748;-81
2023/05/17 10:07:25;;;;;;;14.00;10.90;;;;;;;;;;5047931;28;20711;-81
2023/05/17 10:09:52;;;;;;;17.80;12.60;;;;;;;;;;5047467;28;20213;-82
2023/05/17 10:12:21;;;;;;;19.17;15.70;;;;;;;;;;5048171;28;20205;-81
2023/05/17 10:14:50;;;;;;;17.40;13.50;;;;;;;;;;5047825;28;20704;-81
2023/05/17 10:17:18;;;;;;;16.73;10.57;;;;;;;;;;5048122;28;20685;-81
2023/05/17 10:19:45;;;;;;;11.40;9.13;;;;;;;;;;5047882;28;20202;-81
2023/05/17 10:22:12;;;;;;;14.47;10.37;;;;;;;;;;5047710;28;20228;-81
2023/05/17 10:24:40;;;;;;;20.40;16.33;;;;;;;;;;5048063;28;20210;-81
2023/05/17 10:27:07;;;;;;;11.53;9.67;;;;;;;;;;5047820;28;20202;-81
2023/05/17 10:29:34;;;;;;;16.30;14.27;;;;;;;;;;5047833;28;20292;-81
2023/05/17 10:32:06;;;;;;;15.73;11.63;;;;;;;;;;5047665;28;20246;-82
2023/05/17 10:34:34;;;;;;;11.13;9.27;;;;;;;;;;5034436;28;20218;-81
2023/05/17 10:37:03;;;;;;;10.53;9.07;;;;;;;;;;5048134;27;20589;-81
2023/05/17 10:39:33;;;;;;;10.20;6.83;;;;;;;;;;5042957;28;20210;-83
2023/05/17 10:42:01;;;;;;;7.10;6.40;;;;;;;;;;5039699;28;20302;-82
2023/05/17 10:44:28;;;;;;;11.67;7.77;;;;;;;;;;5048201;28;20213;-81
2023/05/17 10:46:56;;;;;;;9.60;7.07;;;;;;;;;;5047864;28;20240;-82
2023/05/17 10:49:26;;;;;;;9.37;7.30;;;;;;;;;;5047983;28;20209;-82
2023/05/17 10:51:53;;;;;;;10.17;9.17;;;;;;;;;;5047350;28;20231;-82
2023/05/17 10:54:21;;;;;;;11.47;9.17;;;;;;;;;;5014649;28;20196;-82
2023/05/17 10:56:49;;;;;;;11.43;10.27;;;;;;;;;;5040359;28;20700;-84
2023/05/17 10:59:17;;;;;;;9.57;7.07;;;;;;;;;;5034606;28;20271;-82
2023/05/17 11:01:55;;;;;;;9.63;8.03;;;;;;;;;;5047194;28;20284;-83
2023/05/17 11:04:30;;;;;;;7.13;4.80;;;;;;;;;;5038975;28;20210;-83
2023/05/17 11:07:31;;;;;;;4.40;4.00;;;;;;;;;;5030095;28;20650;-84
2023/05/17 11:10:06;;;;;;;4.17;3.83;;;;;;;;;;5047146;28;20580;-82
2023/05/17 11:12:37;;;;;;;4.93;3.53;;;;;;;;;;5047589;28;20190;-83
2023/05/17 11:15:09;;;;;;;3.57;3.27;;;;;;;;;;5046795;28;20232;-83
2023/05/17 11:17:48;;;;;;;4.07;3.70;;;;;;;;;;5038502;28;20207;-83
2023/05/17 11:20:33;;;;;;;4.00;3.40;;;;;;;;;;5044542;28;20568;-83
2023/05/17 11:23:02;;;;;;;2.80;2.60;;;;;;;;;;5046613;28;20248;-83
2023/05/17 11:25:31;;;;;;;3.30;3.00;;;;;;;;;;5050771;28;20209;-82
2023/05/17 11:27:59;;;;;;;5.83;2.77;;;;;;;;;;5037349;28;20225;-83
2023/05/17 11:30:28;;;;;;;2.70;2.50;;;;;;;;;;5050754;28;20198;-83
2023/05/17 11:32:58;;;;;;;2.97;2.70;;;;;;;;;;5047074;28;20608;-83
2023/05/17 11:35:27;;;;;;;3.07;2.77;;;;;;;;;;5041921;28;20252;-83
2023/05/17 11:38:13;;;;;;;3.10;2.67;;;;;;;;;;5032130;28;20202;-83
2023/05/17 11:40:41;;;;;;;4.93;3.43;;;;;;;;;;5044409;28;20214;-83
2023/05/17 11:43:16;;;;;;;5.13;4.63;;;;;;;;;;5039164;28;20239;-83
2023/05/17 11:45:44;;;;;;;6.63;5.97;;;;;;;;;;5050322;27;20237;-83
2023/05/17 11:48:13;;;;;;;4.07;3.77;;;;;;;;;;5041753;28;20241;-84
2023/05/17 11:50:40;;;;;;;3.30;2.80;;;;;;;;;;5043499;28;20207;-83
2023/05/17 11:53:09;;;;;;;3.23;2.93;;;;;;;;;;5040234;28;20695;-83
2023/05/17 11:55:38;;;;;;;3.40;3.10;;;;;;;;;;5050244;28;20226;-83
2023/05/17 11:58:08;;;;;;;4.47;3.80;;;;;;;;;;5029392;28;20235;-84
2023/05/17 12:00:36;;;;;;;32.03;20.47;;;;;;;;;;5045880;28;20289;-84
2023/05/17 12:03:18;;;;;;;36.10;23.03;;;;;;;;;;5050546;28;20246;-83
2023/05/17 12:05:46;;;;;;;7.20;5.27;;;;;;;;;;5092319;28;20209;-83
2023/05/17 12:08:17;;;;;;;15.00;10.97;;;;;;;;;;5049109;28;20198;-83
2023/05/17 12:10:48;;;;;;;47.63;35.83;;;;;;;;;;5038599;28;20205;-83
2023/05/17 12:13:15;;;;;;;15.03;13.10;;;;;;;;;;5048143;28;20202;-84
2023/05/17 12:15:46;;;;;;;12.00;10.80;;;;;;;;;;5030015;28;20226;-83
2023/05/17 12:18:13;;;;;;;12.93;11.57;;;;;;;;;;5043137;28;20258;-83
2023/05/17 12:20:54;;;;;;;13.20;11.80;;;;;;;;;;5030296;28;20234;-83
2023/05/17 12:23:28;;;;;;;5.40;4.90;;;;;;;;;;5043522;28;20202;-84
2023/05/17 12:26:03;;;;;;;25.23;22.67;;;;;;;;;;5043038;28;20224;-84
2023/05/17 12:28:30;;;;;;;21.30;18.10;;;;;;;;;;5024192;28;20239;-83
2023/05/17 12:31:01;;;;;;;6.57;5.97;;;;;;;;;;5049763;28;20621;-84
2023/05/17 12:33:29;;;;;;;8.63;7.33;;;;;;;;;;5050544;28;20194;-84
2023/05/17 12:35:56;;;;;;;14.50;13.10;;;;;;;;;;5049198;28;20950;-83
2023/05/17 12:38:30;;;;;;;8.83;8.13;;;;;;;;;;5049883;28;20212;-83
2023/05/17 12:41:00;;;;;;;12.93;11.90;;;;;;;;;;5046838;28;20194;-83
2023/05/17 12:43:28;;;;;;;7.27;6.60;;;;;;;;;;5040593;28;20206;-84
2023/05/17 12:45:57;;;;;;;5.80;5.40;;;;;;;;;;5049427;28;20278;-84
2023/05/17 12:48:26;;;;;;;6.50;6.00;;;;;;;;;;5038457;28;20681;-84
2023/05/17 12:50:55;;;;;;;5.83;5.33;;;;;;;;;;5034648;28;20237;-84
2023/05/17 12:53:23;;;;;;;4.10;3.80;;;;;;;;;;5037629;28;20207;-83
2023/05/17 12:55:57;;;;;;;2.53;2.43;;;;;;;;;;5042623;28;20226;-83
2023/05/17 12:58:24;;;;;;;2.00;1.90;;;;;;;;;;5043414;28;20202;-84
2023/05/17 13:01:01;;;;;;;2.57;2.37;;;;;;;;;;5042248;28;20216;-84
2023/05/17 13:03:29;;;;;;;3.07;2.73;;;;;;;;;;5042534;28;20662;-84
2023/05/17 13:06:04;;;;;;;3.90;3.60;;;;;;;;;;5038863;28;20213;-84
2023/05/17 13:08:31;;;;;;;3.10;2.83;;;;;;;;;;5032295;28;20206;-84
2023/05/17 13:11:14;;;;;;;1.83;1.63;;;;;;;;;;5040148;28;20213;-84
2023/05/17 13:13:41;;;;;;;2.10;1.40;;;;;;;;;;5049223;28;20652;-83
2023/05/17 13:16:10;;;;;;;2.40;2.20;;;;;;;;;;5036588;28;20635;-86
2023/05/17 13:18:48;;;;;;;2.00;1.90;;;;;;;;;;5016462;28;20241;-84
2023/05/17 13:21:17;;;;;;;1.77;1.67;;;;;;;;;;5030500;28;20206;-84
2023/05/17 13:23:44;;;;;;;2.07;1.60;;;;;;;;;;5049426;28;20300;-84
2023/05/17 13:26:13;;;;;;;1.70;1.60;;;;;;;;;;5035857;28;20203;-83
2023/05/17 13:28:43;;;;;;;3.10;2.80;;;;;;;;;;5039964;28;20211;-84
2023/05/17 13:31:09;;;;;;;2.10;2.00;;;;;;;;;;5042280;28;20199;-84
2023/05/17 13:33:36;;;;;;;1.67;1.50;;;;;;;;;;5029521;28;20711;-84
2023/05/17 13:36:04;;;;;;;3.57;3.17;;;;;;;;;;5045441;28;20222;-84
2023/05/17 13:38:30;;;;;;;2.80;2.30;;;;;;;;;;5038772;28;20281;-83
2023/05/17 13:40:57;;;;;;;2.10;1.80;;;;;;;;;;5028753;28;20203;-84
2023/05/17 13:43:25;;;;;;;1.30;1.20;;;;;;;;;;5039427;28;20205;-84
2023/05/17 13:45:55;;;;;;;1.57;1.47;;;;;;;;;;5035138;28;20605;-84
2023/05/17 13:48:23;;;;;;;1.93;1.83;;;;;;;;;;5048418;28;20293;-83
2023/05/17 13:50:51;;;;;;;4.60;4.30;;;;;;;;;;5048185;28;20208;-83
2023/05/17 13:53:18;;;;;;;2.93;2.73;;;;;;;;;;5049259;28;20202;-84
2023/05/17 13:55:45;;;;;;;2.60;2.50;;;;;;;;;;5048122;28;20225;-84
2023/05/17 13:58:15;;;;;;;1.83;1.73;;;;;;;;;;5036855;28;20222;-84
2023/05/17 14:00:43;;;;;;;1.40;1.30;;;;;;;;;;5047802;28;20210;-84
2023/05/17 14:03:12;;;;;;;1.30;1.20;;;;;;;;;;5048412;28;20212;-84
2023/05/17 14:05:39;;;;;;;1.33;1.27;;;;;;;;;;5028930;28;20246;-85
2023/05/17 14:08:08;;;;;;;2.60;1.70;;;;;;;;;;5028524;28;20202;-84
2023/05/17 14:10:35;;;;;;;1.50;1.40;;;;;;;;;;5029013;28;20234;-84
2023/05/17 14:13:02;;;;;;;5.80;5.20;;;;;;;;;;5042622;28;20209;-83
2023/05/17 14:15:31;;;;;;;13.40;12.23;;;;;;;;;;5040916;28;20707;-82
2023/05/17 14:20:55;;;;;;;30.20;20.97;;;;;;;;;;5047399;28;20210;-80
2023/05/17 14:23:22;;;;;;;30.60;21.30;;;;;;;;;;5042960;28;20214;-80
2023/05/17 14:25:49;;;;;;;17.43;13.40;;;;;;;;;;5047214;28;20202;-79
2023/05/17 14:28:16;;;;;;;10.50;7.37;;;;;;;;;;5048267;28;20558;-81
2023/05/17 14:30:44;;;;;;;4.03;3.60;;;;;;;;;;5034781;28;20286;-81
2023/05/17 14:33:11;;;;;;;14.77;13.30;;;;;;;;;;5047282;28;20208;-80
2023/05/17 14:35:39;;;;;;;2.60;2.40;;;;;;;;;;5047448;28;20712;-80
2023/05/17 14:38:06;;;;;;;3.20;2.87;;;;;;;;;;5047715;28;20254;-80
2023/05/17 14:40:32;;;;;;;5.37;4.93;;;;;;;;;;5045705;28;20198;-80
2023/05/17 14:42:59;;;;;;;15.30;12.83;;;;;;;;;;5047498;28;20202;-80
2023/05/17 14:45:26;;;;;;;9.77;8.77;;;;;;;;;;5047516;28;20217;-80
2023/05/17 14:47:53;;;;;;;3.80;3.43;;;;;;;;;;5035009;28;20234;-80